createdAt,value
2022-11-12T00:00:22.244Z,-28.2
2022-11-12T00:02:23.545Z,-28.4
2022-11-12T00:04:24.856Z,-28.4
2022-11-12T00:06:26.811Z,-28.6
2022-11-12T00:08:28.897Z,-28.3
2022-11-12T00:10:30.148Z,-28.3
2022-11-12T00:12:31.242Z,-28
2022-11-12T00:14:33.174Z,-28.3
2022-11-12T00:16:34.379Z,-28.4
2022-11-12T00:18:35.581Z,-28.3
2022-11-12T00:20:37.015Z,-28.2
2022-11-12T00:22:38.944Z,-28
2022-11-12T00:26:41.653Z,-28.4
2022-11-12T00:28:43.605Z,-28.3
2022-11-12T00:30:44.757Z,-28.4
2022-11-12T00:32:46.342Z,-28
2022-11-12T00:34:48.257Z,-28.1
2022-11-12T00:36:49.578Z,-28.2
2022-11-12T00:38:50.962Z,-28.4
2022-11-12T00:40:52.453Z,-28.5
2022-11-12T00:42:53.566Z,-28.2
2022-11-12T00:44:54.856Z,-28.3
2022-11-12T00:48:57.941Z,-28.3
2022-11-12T00:50:59.493Z,-28.3
2022-11-12T00:53:00.608Z,-28.6
2022-11-12T00:55:02.614Z,-28.4
2022-11-12T00:57:04.293Z,-28.3
2022-11-12T00:59:05.581Z,-28.4
2022-11-12T01:01:07.630Z,-28.4
2022-11-12T01:03:09.378Z,-28.4
2022-11-12T01:05:10.851Z,-28
2022-11-12T01:11:15.190Z,-28.4
2022-11-12T01:13:17.103Z,-28.3
2022-11-12T01:15:18.743Z,-28.1
2022-11-12T01:17:19.854Z,-28.2
2022-11-12T01:19:21.163Z,-28.5
2022-11-12T01:21:22.711Z,-28.3
2022-11-12T01:25:25.360Z,-28.5
2022-11-12T01:27:27.238Z,-28.4
2022-11-12T01:29:29.042Z,-28.5
2022-11-12T01:31:30.265Z,-28.5
2022-11-12T01:35:33.691Z,-28.3
2022-11-12T01:37:35.438Z,-27.8
2022-11-12T01:41:38.573Z,-28.4
2022-11-12T01:43:40.174Z,-28.5
2022-11-12T01:45:41.398Z,-28.4
2022-11-12T01:47:42.433Z,-28.3
2022-11-12T01:51:45.883Z,-28.3
2022-11-12T01:53:47.850Z,-28.3
2022-11-12T01:55:48.877Z,-28.2
2022-11-12T01:57:50.031Z,-28.3
2022-11-12T01:59:51.113Z,-28.3
2022-11-12T02:01:52.151Z,-28.3
2022-11-12T02:03:54.088Z,-28.3
2022-11-12T02:05:55.964Z,-28.2
2022-11-12T02:07:57.503Z,-28
2022-11-12T02:09:58.539Z,-28.2
2022-11-12T02:12:00.359Z,-28.5
2022-11-12T02:14:02.342Z,-28.4
2022-11-12T02:16:03.402Z,-28.3
2022-11-12T02:20:07.003Z,-28.4
2022-11-12T02:22:08.856Z,-28
2022-11-12T02:24:10.335Z,-28
2022-11-12T02:26:11.569Z,-28.2
2022-11-12T02:28:13.506Z,-28.2
2022-11-12T02:30:15.309Z,-28.3
2022-11-12T02:34:18.188Z,-28.2
2022-11-12T02:36:19.547Z,-28
2022-11-12T02:38:20.718Z,-28.2
2022-11-12T02:40:22.131Z,-28.3
2022-11-12T02:42:23.532Z,-28.4
2022-11-12T02:44:25.248Z,-28.4
2022-11-12T02:46:27.144Z,-28.2
2022-11-12T02:48:29.332Z,-28.4
2022-11-12T02:50:30.623Z,-28.3
2022-11-12T02:52:32.561Z,-28.3
2022-11-12T02:54:33.687Z,-28.3
2022-11-12T02:56:34.856Z,-28.4
2022-11-12T02:58:36.142Z,-28.2
2022-11-12T03:01:21.567Z,-28.4
2022-11-12T03:03:22.948Z,-28.2
2022-11-12T03:05:24.034Z,-28.3
2022-11-12T03:07:25.986Z,-28.5
2022-11-12T03:09:27.381Z,-28.2
2022-11-12T03:11:28.429Z,-28
2022-11-12T03:13:29.506Z,-28.2
2022-11-12T03:15:31.140Z,-28.3
2022-11-12T03:17:32.865Z,-28.4
2022-11-12T03:19:34.761Z,-28.3
2022-11-12T03:21:35.894Z,-28.1
2022-11-12T03:23:37.428Z,-28.3
2022-11-12T03:27:40.573Z,-28.4
2022-11-12T03:29:41.767Z,-28.3
2022-11-12T03:31:42.793Z,-28.5
2022-11-12T03:33:44.692Z,-28.2
2022-11-12T03:35:46.678Z,-28.1
2022-11-12T03:37:48.598Z,-28
2022-11-12T03:39:50.485Z,-28.4
2022-11-12T03:41:52.306Z,-28.2
2022-11-12T03:43:54.280Z,-28.5
2022-11-12T03:45:55.968Z,-28.8
2022-11-12T03:47:58.141Z,-28.3
2022-11-12T03:49:58.939Z,-28.4
2022-11-12T03:52:00.527Z,-28.3
2022-11-12T03:54:02.129Z,-28.5
2022-11-12T03:56:03.222Z,-28.5
2022-11-12T03:58:04.693Z,-28.3
2022-11-12T04:00:06.647Z,-28.2
2022-11-12T04:02:07.917Z,-28.2
2022-11-12T04:04:09.345Z,-28.4
2022-11-12T04:06:10.973Z,-28.3
2022-11-12T04:08:12.551Z,-28.5
2022-11-12T04:10:14.562Z,-28.2
2022-11-12T04:12:16.446Z,-28.1
2022-11-12T04:14:18.199Z,-28.3
2022-11-12T04:16:19.237Z,-28.3
2022-11-12T04:18:21.100Z,-28.5
2022-11-12T04:20:22.924Z,-28.2
2022-11-12T04:22:24.012Z,-28.1
2022-11-12T04:24:25.356Z,-28.2
2022-11-12T04:26:26.478Z,-28.3
2022-11-12T04:28:28.718Z,-28.4
2022-11-12T04:30:30.478Z,-28.4
2022-11-12T04:32:32.185Z,-28.5
2022-11-12T04:34:33.358Z,-28.3
2022-11-12T04:36:34.891Z,-28.4
2022-11-12T04:38:36.535Z,-28.2
2022-11-12T04:40:38.223Z,-28.3
2022-11-12T04:42:40.235Z,-28.4
2022-11-12T04:44:41.310Z,-28.5
2022-11-12T04:46:42.778Z,-28.3
2022-11-12T04:48:44.768Z,-28.6
2022-11-12T04:50:46.002Z,-28.4
2022-11-12T04:52:47.128Z,-28
2022-11-12T04:54:49.121Z,-28.3
2022-11-12T04:56:50.376Z,-28.3
2022-11-12T04:58:51.520Z,-28.5
2022-11-12T05:00:53.419Z,-28.2
2022-11-12T05:02:54.454Z,-28.3
2022-11-12T05:04:55.929Z,-28.6
2022-11-12T05:06:57.394Z,-28.2
2022-11-12T05:08:58.441Z,-28.1
2022-11-12T05:10:59.564Z,-28.1
2022-11-12T05:15:02.118Z,-28.3
2022-11-12T05:17:03.974Z,-28.3
2022-11-12T05:19:05.835Z,-28.3
2022-11-12T05:21:07.682Z,-28.4
2022-11-12T05:23:09.532Z,-28.2
2022-11-12T05:25:11.238Z,-28.2
2022-11-12T05:27:13.028Z,-28.4
2022-11-12T05:29:14.586Z,-28.5
2022-11-12T05:31:15.636Z,-28.4
2022-11-12T05:37:19.679Z,-28.3
2022-11-12T05:39:21.077Z,-28.2
2022-11-12T05:41:22.735Z,-28.5
2022-11-12T05:43:24.306Z,-28.2
2022-11-12T05:45:25.925Z,-28.3
2022-11-12T05:47:27.555Z,-28.2
2022-11-12T05:51:30.862Z,-28.3
2022-11-12T05:53:32.764Z,-28.4
2022-11-12T05:57:35.551Z,-27.9
2022-11-12T05:59:37.162Z,-28.3
2022-11-12T06:01:38.565Z,-28.4
2022-11-12T06:03:39.972Z,-28
2022-11-12T06:05:41.260Z,-28.4
2022-11-12T06:07:43.037Z,-28.3
2022-11-12T06:09:44.317Z,-28.3
2022-11-12T06:11:46.081Z,-28.3
2022-11-12T06:13:47.901Z,-28.3
2022-11-12T06:19:52.489Z,-28.2
2022-11-12T06:21:54.216Z,-28.3
2022-11-12T06:23:55.609Z,-28.4
2022-11-12T06:25:56.889Z,-28.4
2022-11-12T06:27:58.155Z,-28.4
2022-11-12T06:29:59.432Z,-28.5
2022-11-12T06:32:00.995Z,-28.5
2022-11-12T06:36:04.899Z,-28.4
2022-11-12T06:38:06.394Z,-28.2
2022-11-12T06:40:07.883Z,-28.5
2022-11-12T06:44:11.211Z,-28
2022-11-12T06:46:12.224Z,-28.3
2022-11-12T06:50:15.105Z,-28.3
2022-11-12T06:52:16.956Z,-28.4
2022-11-12T06:54:18.485Z,-28.4
2022-11-12T06:56:19.922Z,-28.5
2022-11-12T07:02:24.540Z,-28.2
2022-11-12T07:04:25.932Z,-28.5
2022-11-12T07:06:27.483Z,-28.5
2022-11-12T07:08:29.541Z,-28.3
2022-11-12T07:10:30.690Z,-28.4
2022-11-12T07:12:32.631Z,-28.5
2022-11-12T07:16:35.492Z,-28.2
2022-11-12T07:18:37.371Z,-28.5
2022-11-12T07:20:39.099Z,-28.3
2022-11-12T07:22:41.002Z,-28.2
2022-11-12T07:26:47.405Z,-28.4
2022-11-12T07:28:45.216Z,-28.4
2022-11-12T07:32:51.744Z,-28.3
2022-11-12T07:34:50.025Z,-28.3
2022-11-12T07:36:51.714Z,-26.4
2022-11-12T07:38:53.205Z,-26.7
2022-11-12T07:44:58.504Z,-26.6
2022-11-12T07:46:59.816Z,-26.5
2022-11-12T07:49:01.679Z,-26.5
2022-11-12T07:53:04.252Z,-25.7
2022-11-12T07:55:06.115Z,-26.5
2022-11-12T07:59:08.835Z,-24.8
2022-11-12T08:01:10.772Z,-22.1
2022-11-12T08:03:11.787Z,-22.7
2022-11-12T08:05:16.468Z,-22.9
2022-11-12T08:11:18.664Z,-22.7
2022-11-12T08:13:20.163Z,-22.2
2022-11-12T08:15:21.819Z,-22.9
2022-11-12T08:17:23.323Z,-22.7
2022-11-12T08:19:24.414Z,-21.4
2022-11-12T08:21:26.170Z,-20.9
2022-11-12T08:25:28.559Z,-19.5
2022-11-12T08:27:30.524Z,-17.2
2022-11-12T08:29:31.607Z,-17.6
2022-11-12T08:31:33.230Z,-15.7
2022-11-12T08:33:34.706Z,-12.8
2022-11-12T08:35:36.186Z,-6.1
2022-11-12T08:37:37.953Z,-6
2022-11-12T08:39:39.399Z,-4.69
2022-11-12T08:41:40.979Z,-4.19
2022-11-12T08:43:42.269Z,-4.9
2022-11-12T08:45:43.798Z,-6.7
2022-11-12T08:47:45.507Z,-7.7
2022-11-12T08:49:48.126Z,-6.9
2022-11-12T08:51:48.193Z,-5.8
2022-11-12T08:53:49.966Z,-3
2022-11-12T08:57:53.177Z,8.8
2022-11-12T08:59:55.080Z,14.2
2022-11-12T09:01:56.877Z,14.4
2022-11-12T09:03:58.547Z,13.5
2022-11-12T09:06:00.406Z,11
2022-11-12T09:08:01.863Z,12.2
2022-11-12T09:10:03.419Z,12.2
2022-11-12T09:12:12.562Z,10.7
2022-11-12T09:14:06.790Z,9.7
2022-11-12T09:16:08.531Z,7.3
2022-11-12T09:18:09.558Z,7.8
2022-11-12T09:20:11.519Z,7.7
2022-11-12T09:22:12.553Z,10.5
2022-11-12T09:24:13.874Z,10.9
2022-11-12T09:26:15.518Z,10.2
2022-11-12T09:28:17.387Z,9.5
2022-11-12T09:30:18.615Z,8.8
2022-11-12T09:32:19.964Z,8.39
2022-11-12T09:34:20.952Z,6.1
2022-11-12T09:36:22.682Z,7.6
2022-11-12T09:40:25.581Z,11.1
2022-11-12T09:42:26.961Z,12
2022-11-12T09:44:31.724Z,14.4
2022-11-12T09:46:30.297Z,14.6
2022-11-12T09:47:14.180Z,15.4
2022-11-12T09:51:16.708Z,29.1
2022-11-12T09:53:18.058Z,32.9
2022-11-12T09:55:19.828Z,38.59
2022-11-12T09:57:21.659Z,39.7
2022-11-12T09:59:23.280Z,39.2
2022-11-12T10:01:24.827Z,30.9
2022-11-12T10:03:25.833Z,32
2022-11-12T10:05:27.468Z,33.7
2022-11-12T10:07:28.686Z,33.9
2022-11-12T10:09:30.099Z,28.6
2022-11-12T10:11:31.817Z,36.5
2022-11-12T10:13:33.227Z,35.3
2022-11-12T10:15:34.907Z,30.1
2022-11-12T10:17:36.094Z,28.5
2022-11-12T10:19:37.565Z,35.2
2022-11-12T10:23:40.459Z,37.4
2022-11-12T10:25:42.264Z,38.8
2022-11-12T10:27:44.179Z,33.8
2022-11-12T10:29:45.520Z,33.2
2022-11-12T10:31:47.112Z,33.09
2022-11-12T10:33:48.538Z,33.3
2022-11-12T10:35:50.265Z,33.09
2022-11-12T10:37:51.507Z,33.3
2022-11-12T10:39:52.753Z,35.7
2022-11-12T10:45:56.927Z,44.4
2022-11-12T10:47:58.675Z,42.3
2022-11-12T10:50:00.253Z,41.8
2022-11-12T10:52:02.043Z,46.9
2022-11-12T10:54:03.252Z,49
2022-11-12T10:56:05.387Z,71.8
2022-11-12T10:58:07.098Z,70
2022-11-12T11:00:08.606Z,69.4
2022-11-12T11:02:10.006Z,68.19
2022-11-12T11:06:13.242Z,66.1
2022-11-12T11:08:14.523Z,65.3
2022-11-12T11:10:16.112Z,63.4
2022-11-12T11:12:16.993Z,62.3
2022-11-12T11:14:18.605Z,61.5
2022-11-12T11:16:20.335Z,60.6
2022-11-12T11:18:21.447Z,59
2022-11-12T11:20:22.994Z,58
2022-11-12T11:22:23.928Z,56.9
2022-11-12T11:28:28.447Z,53.1
2022-11-12T11:30:29.751Z,52.2
2022-11-12T11:32:36.169Z,50.2
2022-11-12T11:34:32.584Z,49.7
2022-11-12T11:36:33.809Z,48.6
2022-11-12T11:38:34.675Z,47.1
2022-11-12T11:42:37.383Z,45
2022-11-12T11:44:38.277Z,43.4
2022-11-12T11:46:39.936Z,42.7
2022-11-12T11:48:41.199Z,41.1
2022-11-12T11:50:42.463Z,39.7
2022-11-12T11:54:45.718Z,37.4
2022-11-12T11:58:48.480Z,34.2
2022-11-12T12:00:49.600Z,34.09
2022-11-12T12:02:50.908Z,32.4
2022-11-12T12:04:52.517Z,32.2
2022-11-12T12:08:55.263Z,29.3
2022-11-12T12:11:08.460Z,29.4
2022-11-12T12:12:58.618Z,28.5
2022-11-12T12:14:59.673Z,27.4
2022-11-12T12:17:01.409Z,26.2
2022-11-12T12:19:02.644Z,25.7
2022-11-12T12:21:04.343Z,24
2022-11-12T12:23:05.363Z,22.8
2022-11-12T12:25:06.380Z,22.3
2022-11-12T12:27:07.427Z,21.8
2022-11-12T12:29:08.478Z,21.9
2022-11-12T12:31:09.533Z,19.9
2022-11-12T12:33:11.349Z,19.29
2022-11-12T12:35:12.687Z,17.4
2022-11-12T12:37:13.734Z,16.6
2022-11-12T12:39:14.613Z,14
2022-11-12T12:41:16.346Z,12.6
2022-11-12T12:43:17.538Z,13.4
2022-11-12T12:45:18.414Z,13.6
2022-11-12T12:47:19.664Z,10.8
2022-11-12T12:49:20.581Z,9.5
2022-11-12T12:51:22.418Z,9.8
2022-11-12T12:53:23.987Z,8.39
2022-11-12T12:55:25.781Z,8.39
2022-11-12T12:57:26.886Z,7.1
2022-11-12T12:59:28.374Z,7
2022-11-12T13:01:29.957Z,5.2
2022-11-12T13:03:31.545Z,6.2
2022-11-12T13:09:35.413Z,-28.6
2022-11-12T13:11:36.622Z,-28.5
2022-11-12T13:13:37.792Z,-28.4
2022-11-12T13:15:39.744Z,-28.3
2022-11-12T13:17:41.314Z,-28.4
2022-11-12T13:19:42.964Z,-28.3
2022-11-12T13:23:45.258Z,-28.3
2022-11-12T13:25:46.961Z,-28.3
2022-11-12T13:27:48.133Z,-28.3
2022-11-12T13:29:49.516Z,-28.2
2022-11-12T13:35:53.368Z,-28.4
2022-11-12T13:37:54.300Z,-28.5
2022-11-12T13:39:55.983Z,-28.5
2022-11-12T13:41:57.333Z,-28.4
2022-11-12T13:43:58.591Z,-28.3
2022-11-12T13:45:59.824Z,-28.3
2022-11-12T13:48:01.423Z,-28.2
2022-11-12T13:50:03.288Z,-28.5
2022-11-12T13:52:04.435Z,-28.3
2022-11-12T13:54:05.416Z,-28.5
2022-11-12T13:56:06.803Z,-28.4
2022-11-12T13:58:08.468Z,-28.3
2022-11-12T14:00:10.329Z,-28.4
2022-11-12T14:02:11.919Z,-28.3
2022-11-12T14:04:13.248Z,-28.4
2022-11-12T14:06:14.340Z,-28.4
2022-11-12T14:08:15.277Z,-28.2
2022-11-12T14:10:17.133Z,-28.4
2022-11-12T14:12:18.431Z,-28.2
2022-11-12T14:14:19.977Z,-28.6
2022-11-12T14:16:21.080Z,-28.5
2022-11-12T14:18:22.971Z,-28.3
2022-11-12T14:22:26.144Z,-28.6
2022-11-12T14:24:27.474Z,-28.6
2022-11-12T14:26:29.254Z,-28.2
2022-11-12T14:28:30.801Z,-28
2022-11-12T14:32:34.054Z,-28.5
2022-11-12T14:34:35.613Z,-28.6
2022-11-12T14:36:37.346Z,-28.3
2022-11-12T14:38:38.494Z,-28.2
2022-11-12T14:40:40.143Z,-28.4
2022-11-12T14:42:41.603Z,-28.4
2022-11-12T14:44:43.172Z,-28.4
2022-11-12T14:46:44.893Z,-28.5
2022-11-12T14:48:46.375Z,-28.3
2022-11-12T14:50:50.846Z,-28.4
2022-11-12T14:52:50.034Z,-28.5
2022-11-12T14:54:50.999Z,-28.2
2022-11-12T14:56:52.814Z,-28.3
2022-11-12T14:58:53.868Z,-28.4
2022-11-12T15:00:54.887Z,-28.6
2022-11-12T15:02:59.674Z,-28.3
2022-11-12T15:04:57.466Z,-28.3
2022-11-12T15:06:58.751Z,-28.3
2022-11-12T15:09:00.359Z,-28.5
2022-11-12T15:11:01.765Z,-28.4
2022-11-12T15:13:02.753Z,-28.6
2022-11-12T15:17:06.362Z,-28.4
2022-11-12T15:19:07.961Z,-28.2
2022-11-12T15:21:09.225Z,-28.4
2022-11-12T15:23:10.791Z,-28.6
2022-11-12T15:25:12.000Z,-28.4
2022-11-12T15:27:13.673Z,-28.5
2022-11-12T15:33:18.037Z,-28.5
2022-11-12T15:35:19.534Z,-28.5
2022-11-12T15:37:21.224Z,-28.5
2022-11-12T15:39:23.093Z,-28.2
2022-11-12T15:41:24.738Z,-28.4
2022-11-12T15:43:26.935Z,-28.5
2022-11-12T15:45:28.118Z,-28.4
2022-11-12T15:47:29.803Z,-28.5
2022-11-12T15:49:31.618Z,-28.3
2022-11-12T15:51:33.441Z,-28.4
2022-11-12T15:53:34.890Z,-28.5
2022-11-12T15:55:36.675Z,-28.4
2022-11-12T15:57:37.685Z,-28.5
2022-11-12T15:59:47.448Z,-28.4
2022-11-12T16:03:42.514Z,-28.3
2022-11-12T16:05:43.742Z,-28.3
2022-11-12T16:09:46.641Z,-28.4
2022-11-12T16:11:47.939Z,-28.5
2022-11-12T16:13:49.244Z,-28.3
2022-11-12T16:15:50.629Z,-28.6
2022-11-12T16:17:52.198Z,-28.2
2022-11-12T16:19:53.818Z,-28.5
2022-11-12T16:21:55.727Z,-28.5
2022-11-12T16:23:57.115Z,-28.3
2022-11-12T16:25:58.503Z,-28.6
2022-11-12T16:30:01.996Z,-28
2022-11-12T16:32:03.667Z,-28.4
2022-11-12T16:32:47.503Z,-28.3
2022-11-12T16:36:50.441Z,-28.3
2022-11-12T16:38:51.527Z,-28.5
2022-11-12T16:40:52.820Z,-28.4
2022-11-12T16:42:54.554Z,-28.3
2022-11-12T16:44:55.591Z,-28.6
2022-11-12T16:46:56.861Z,-28.5
2022-11-12T16:50:59.811Z,-28.4
2022-11-12T16:53:01.259Z,-28.4
2022-11-12T16:55:04.704Z,-28.5
2022-11-12T16:57:04.157Z,-28.1
2022-11-12T17:01:06.698Z,-28.3
2022-11-12T17:03:08.059Z,-28.3
2022-11-12T17:07:11.773Z,-28.4
2022-11-12T17:09:12.850Z,-28.2
2022-11-12T17:11:14.562Z,-28.4
2022-11-12T17:13:15.564Z,-28.5
2022-11-12T17:15:16.944Z,-28.3
2022-11-12T17:19:19.411Z,-28.5
2022-11-12T17:23:21.609Z,-28.3
2022-11-12T17:25:22.961Z,-28.4
2022-11-12T17:27:24.811Z,-28.3
2022-11-12T17:29:26.573Z,-28.7
2022-11-12T17:33:29.611Z,-28.6
2022-11-12T17:35:31.305Z,-28
2022-11-12T17:39:33.945Z,-28.4
2022-11-12T17:41:35.147Z,-28.3
2022-11-12T17:43:36.610Z,-28.4
2022-11-12T17:45:38.272Z,-28.2
2022-11-12T17:47:40.665Z,-28.3
2022-11-12T17:51:43.262Z,-28.3
2022-11-12T17:53:44.719Z,-28.3
2022-11-12T17:55:46.247Z,-28.3
2022-11-12T17:57:47.653Z,-28.5
2022-11-12T17:59:49.293Z,-28.4
2022-11-12T18:01:50.566Z,-28.3
2022-11-12T18:03:52.234Z,-28.5
2022-11-12T18:05:53.870Z,-28.5
2022-11-12T18:07:55.628Z,-28.4
2022-11-12T18:09:56.577Z,-28.2
2022-11-12T18:11:57.628Z,-28.4
2022-11-12T18:13:58.751Z,-28.5
2022-11-12T18:15:59.976Z,-28.8
2022-11-12T18:18:01.412Z,-28.3
2022-11-12T18:20:02.809Z,-28.4
2022-11-12T18:22:04.170Z,-28.5
2022-11-12T18:24:05.994Z,-28.5
2022-11-12T18:26:07.399Z,-28.4
2022-11-12T18:28:08.809Z,-28.6
2022-11-12T18:30:13.855Z,-28.4
2022-11-12T18:32:12.407Z,-28.4
2022-11-12T18:34:14.245Z,-28.6
2022-11-12T18:38:16.346Z,-28.2
2022-11-12T18:40:17.688Z,-28.3
2022-11-12T18:42:19.364Z,-28.4
2022-11-12T18:44:24.863Z,-28.5
2022-11-12T18:46:21.953Z,-28.2
2022-11-12T18:50:24.388Z,-28.4
2022-11-12T18:52:26.449Z,-28
2022-11-12T18:54:28.143Z,-28.2
2022-11-12T18:56:29.530Z,-28.4
2022-11-12T18:58:35.039Z,-28.4
2022-11-12T19:00:32.729Z,-28.3
2022-11-12T19:02:34.269Z,-28.4
2022-11-12T19:04:35.436Z,-28.3
2022-11-12T19:06:36.816Z,-28.3
2022-11-12T19:08:38.214Z,-28.4
2022-11-12T19:10:39.248Z,-28.5
2022-11-12T19:12:41.067Z,-28.4
2022-11-12T19:14:42.092Z,-28.3
2022-11-12T19:16:43.107Z,-28.4
2022-11-12T19:18:44.609Z,-28.5
2022-11-12T19:20:46.070Z,-28.2
2022-11-12T19:22:47.037Z,-28.3
2022-11-12T19:26:50.631Z,-28.3
2022-11-12T19:28:51.757Z,-28.2
2022-11-12T19:30:53.195Z,-28.5
2022-11-12T19:32:55.020Z,-28.5
2022-11-12T19:34:56.874Z,-28.2
2022-11-12T19:37:19.180Z,-28.3
2022-11-12T19:38:59.468Z,-28.5
2022-11-12T19:41:00.753Z,-28.5
2022-11-12T19:43:02.293Z,-28.6
2022-11-12T19:49:06.529Z,-28.5
2022-11-12T19:51:17.773Z,-28.5
2022-11-12T19:55:10.667Z,-28.4
2022-11-12T19:57:12.245Z,-28.6
2022-11-12T19:59:13.909Z,-28.4
2022-11-12T20:03:17.508Z,-28.4
2022-11-12T20:05:19.071Z,-28.3
2022-11-12T20:07:20.408Z,-28.2
2022-11-12T20:09:22.028Z,-28.4
2022-11-12T20:15:26.854Z,-28.5
2022-11-12T20:17:27.987Z,-28.3
2022-11-12T20:19:29.117Z,-28.5
2022-11-12T20:21:30.546Z,-28.5
2022-11-12T20:23:31.784Z,-28.2
2022-11-12T20:25:33.031Z,-28.1
2022-11-12T20:27:34.741Z,-28.4
2022-11-12T20:29:36.259Z,-28.3
2022-11-12T20:31:37.421Z,-28.4
2022-11-12T20:33:42.182Z,-28.4
2022-11-12T20:35:39.641Z,-28.3
2022-11-12T20:37:40.867Z,-28.4
2022-11-12T20:39:42.207Z,-28.4
2022-11-12T20:41:43.869Z,-28.4
2022-11-12T20:43:45.717Z,-28.4
2022-11-12T20:45:46.748Z,-28.6
2022-11-12T20:47:48.300Z,-28.2
2022-11-12T20:49:50.206Z,-28.5
2022-11-12T20:51:51.889Z,-28.5
2022-11-12T20:53:57.618Z,-28.4
2022-11-12T20:55:55.061Z,-28.3
2022-11-12T20:57:56.070Z,-28.3
2022-11-12T20:59:57.916Z,-28.4
2022-11-12T21:01:59.620Z,-28.4
2022-11-12T21:04:00.791Z,-28.3
2022-11-12T21:06:02.358Z,-28.3
2022-11-12T21:08:03.350Z,-28.2
2022-11-12T21:14:08.318Z,-28.4
2022-11-12T21:16:09.640Z,-28.2
2022-11-12T21:18:11.303Z,-28.6
2022-11-12T21:20:12.492Z,-28.5
2022-11-12T21:22:14.440Z,-28.3
2022-11-12T21:24:15.730Z,-28.4
2022-11-12T21:26:17.483Z,-28.4
2022-11-12T21:28:19.175Z,-28.3
2022-11-12T21:30:20.860Z,-28.4
2022-11-12T21:32:21.944Z,-28.3
2022-11-12T21:34:23.551Z,-28.5
2022-11-12T21:36:24.819Z,-28.4
2022-11-12T21:38:26.363Z,-28.3
2022-11-12T21:40:28.126Z,-28.4
2022-11-12T21:44:31.099Z,-28.4
2022-11-12T21:46:32.543Z,-28.6
2022-11-12T21:48:33.928Z,-28.3
2022-11-12T21:50:35.320Z,-28.3
2022-11-12T21:56:39.640Z,-28.4
2022-11-12T21:58:40.794Z,-28.4
2022-11-12T22:00:42.691Z,-28.3
2022-11-12T22:02:43.739Z,-28.4
2022-11-12T22:04:44.980Z,-28.4
2022-11-12T22:06:46.831Z,-28.3
2022-11-12T22:08:48.612Z,-28.3
2022-11-12T22:10:49.967Z,-28.4
2022-11-12T22:13:12.384Z,-28.5
2022-11-12T22:14:53.298Z,-28.4
2022-11-12T22:16:54.371Z,-28.4
2022-11-12T22:18:56.165Z,-28
2022-11-12T22:20:57.826Z,-28.4
2022-11-12T22:22:59.331Z,-28.2
2022-11-12T22:25:01.093Z,-28.5
2022-11-12T22:27:05.373Z,-28.4
2022-11-12T22:29:04.318Z,-28.5
2022-11-12T22:31:05.797Z,-28.2
2022-11-12T22:33:07.092Z,-28.5
2022-11-12T22:35:08.387Z,-28.3
2022-11-12T22:37:10.093Z,-28.5
2022-11-12T22:39:11.308Z,-28.2
2022-11-12T22:41:12.855Z,-28.3
2022-11-12T22:43:14.805Z,-28.6
2022-11-12T22:45:16.755Z,-28.6
2022-11-12T22:47:17.834Z,-28.2
2022-11-12T22:49:19.453Z,-28.6
2022-11-12T22:53:22.250Z,-28.3
2022-11-12T22:55:23.665Z,-28.6
2022-11-12T22:57:24.875Z,-28.2
2022-11-12T22:59:26.288Z,-28.4
2022-11-12T23:01:27.497Z,-28.5
2022-11-12T23:05:30.082Z,-28.4
2022-11-12T23:07:31.140Z,-28.5
2022-11-12T23:09:32.364Z,-28.1
2022-11-12T23:11:33.602Z,-28.3
2022-11-12T23:13:34.613Z,-28.4
2022-11-12T23:15:36.234Z,-28.4
2022-11-12T23:18:21.571Z,-28.4
2022-11-12T23:20:23.287Z,-28.3
2022-11-12T23:22:24.950Z,-28.2
2022-11-12T23:24:26.743Z,-28.2
2022-11-12T23:26:27.918Z,-28.5
2022-11-12T23:28:29.760Z,-28.3
2022-11-12T23:30:31.006Z,-28.3
2022-11-12T23:32:32.118Z,-28.5
2022-11-12T23:34:33.580Z,-28.4
2022-11-12T23:36:35.112Z,-28.4
2022-11-12T23:38:36.745Z,-28.3
2022-11-12T23:40:37.834Z,-28.3
2022-11-12T23:42:39.618Z,-28.4
2022-11-12T23:44:40.931Z,-28.5
2022-11-12T23:46:41.937Z,-28.3
2022-11-12T23:48:43.689Z,-28.3
2022-11-12T23:50:44.797Z,-28.3
2022-11-12T23:52:46.571Z,-28.6
2022-11-12T23:54:47.695Z,-28.3
2022-11-12T23:56:49.181Z,-28.4
2022-11-12T23:58:50.883Z,-28.4
